createdAt,value
2022-09-10T00:00:00.000Z,0.0
2022-09-10T00:02:00.000Z,0.0
2022-09-10T00:04:00.000Z,0.0
2022-09-10T00:06:00.000Z,0.0
2022-09-10T00:08:00.000Z,0.0
2022-09-10T00:10:00.000Z,0.0
2022-09-10T00:12:00.000Z,0.0
2022-09-10T00:14:00.000Z,0.0
2022-09-10T00:16:00.000Z,0.0
2022-09-10T00:18:00.000Z,0.0
2022-09-10T00:20:00.000Z,0.0
2022-09-10T00:22:00.000Z,0.0
2022-09-10T00:24:00.000Z,0.0
2022-09-10T00:26:00.000Z,0.0
2022-09-10T00:28:00.000Z,0.0
2022-09-10T00:30:00.000Z,0.0
2022-09-10T00:32:00.000Z,0.0
2022-09-10T00:34:00.000Z,0.0
2022-09-10T00:36:00.000Z,0.0
2022-09-10T00:38:00.000Z,0.0
2022-09-10T00:40:00.000Z,0.0
2022-09-10T00:42:00.000Z,0.0
2022-09-10T00:44:00.000Z,0.0
2022-09-10T00:46:00.000Z,0.0
2022-09-10T00:48:00.000Z,0.0
2022-09-10T00:50:00.000Z,0.0
2022-09-10T00:52:00.000Z,0.0
2022-09-10T00:54:00.000Z,0.0
2022-09-10T00:56:00.000Z,0.0
2022-09-10T00:58:00.000Z,0.0
2022-09-10T01:00:00.000Z,0.0
2022-09-10T01:02:00.000Z,0.0
2022-09-10T01:04:00.000Z,0.0
2022-09-10T01:06:00.000Z,0.0
2022-09-10T01:08:00.000Z,0.0
2022-09-10T01:10:00.000Z,0.0
2022-09-10T01:12:00.000Z,0.0
2022-09-10T01:14:00.000Z,0.0
2022-09-10T01:16:00.000Z,0.0
2022-09-10T01:18:00.000Z,0.0
2022-09-10T01:20:00.000Z,0.0
2022-09-10T01:22:00.000Z,0.0
2022-09-10T01:24:00.000Z,0.0
2022-09-10T01:26:00.000Z,0.0
2022-09-10T01:28:00.000Z,0.0
2022-09-10T01:30:00.000Z,0.0
2022-09-10T01:32:00.000Z,0.0
2022-09-10T01:34:00.000Z,0.0
2022-09-10T01:36:00.000Z,0.0
2022-09-10T01:38:00.000Z,0.0
2022-09-10T01:40:00.000Z,0.0
2022-09-10T01:42:00.000Z,0.0
2022-09-10T01:44:00.000Z,0.0
2022-09-10T01:46:00.000Z,0.0
2022-09-10T01:48:00.000Z,0.0
2022-09-10T01:50:00.000Z,0.0
2022-09-10T01:52:00.000Z,0.0
2022-09-10T01:54:00.000Z,0.0
2022-09-10T01:56:00.000Z,0.0
2022-09-10T01:58:00.000Z,0.0
2022-09-10T02:00:00.000Z,0.0
2022-09-10T02:02:00.000Z,0.0
2022-09-10T02:04:00.000Z,0.0
2022-09-10T02:06:00.000Z,0.0
2022-09-10T02:08:00.000Z,0.0
2022-09-10T02:10:00.000Z,0.0
2022-09-10T02:12:00.000Z,0.0
2022-09-10T02:14:00.000Z,0.0
2022-09-10T02:16:00.000Z,0.0
2022-09-10T02:18:00.000Z,0.0
2022-09-10T02:20:00.000Z,0.0
2022-09-10T02:22:00.000Z,0.0
2022-09-10T02:24:00.000Z,0.0
2022-09-10T02:26:00.000Z,0.0
2022-09-10T02:28:00.000Z,0.0
2022-09-10T02:30:00.000Z,0.0
2022-09-10T02:32:00.000Z,0.0
2022-09-10T02:34:00.000Z,0.0
2022-09-10T02:36:00.000Z,0.0
2022-09-10T02:38:00.000Z,0.0
2022-09-10T02:40:00.000Z,0.0
2022-09-10T02:42:00.000Z,0.0
2022-09-10T02:44:00.000Z,0.0
2022-09-10T02:46:00.000Z,0.0
2022-09-10T02:48:00.000Z,0.0
2022-09-10T02:50:00.000Z,0.0
2022-09-10T02:52:00.000Z,0.0
2022-09-10T02:54:00.000Z,0.0
2022-09-10T02:56:00.000Z,0.0
2022-09-10T02:58:00.000Z,0.0
2022-09-10T03:00:00.000Z,0.0
2022-09-10T03:02:00.000Z,0.0
2022-09-10T03:04:00.000Z,0.0
2022-09-10T03:06:00.000Z,0.0
2022-09-10T03:08:00.000Z,0.0
2022-09-10T03:10:00.000Z,0.0
2022-09-10T03:12:00.000Z,0.0
2022-09-10T03:14:00.000Z,0.0
2022-09-10T03:16:00.000Z,0.0
2022-09-10T03:18:00.000Z,0.0
2022-09-10T03:20:00.000Z,0.0
2022-09-10T03:22:00.000Z,0.0
2022-09-10T03:24:00.000Z,0.0
2022-09-10T03:26:00.000Z,0.0
2022-09-10T03:28:00.000Z,0.0
2022-09-10T03:30:00.000Z,0.0
2022-09-10T03:32:00.000Z,0.0
2022-09-10T03:34:00.000Z,0.0
2022-09-10T03:36:00.000Z,0.0
2022-09-10T03:38:00.000Z,0.0
2022-09-10T03:40:00.000Z,0.0
2022-09-10T03:42:00.000Z,0.0
2022-09-10T03:44:00.000Z,0.0
2022-09-10T03:46:00.000Z,0.0
2022-09-10T03:48:00.000Z,0.0
2022-09-10T03:50:00.000Z,0.0
2022-09-10T03:52:00.000Z,0.0
2022-09-10T03:54:00.000Z,0.0
2022-09-10T03:56:00.000Z,0.0
2022-09-10T03:58:00.000Z,0.0
2022-09-10T04:00:00.000Z,0.0
2022-09-10T04:02:00.000Z,0.0
2022-09-10T04:04:00.000Z,0.0
2022-09-10T04:06:00.000Z,0.0
2022-09-10T04:08:00.000Z,0.0
2022-09-10T04:10:00.000Z,0.0
2022-09-10T04:12:00.000Z,0.0
2022-09-10T04:14:00.000Z,0.0
2022-09-10T04:16:00.000Z,0.0
2022-09-10T04:18:00.000Z,0.0
2022-09-10T04:20:00.000Z,0.0
2022-09-10T04:22:00.000Z,0.0
2022-09-10T04:24:00.000Z,0.0
2022-09-10T04:26:00.000Z,0.0
2022-09-10T04:28:00.000Z,0.0
2022-09-10T04:30:00.000Z,0.23
2022-09-10T04:32:00.000Z,0.47
2022-09-10T04:34:00.000Z,0.63
2022-09-10T04:36:00.000Z,0.79
2022-09-10T04:38:00.000Z,1.02
2022-09-10T04:40:00.000Z,1.26
2022-09-10T04:42:00.000Z,1.34
2022-09-10T04:44:00.000Z,1.58
2022-09-10T04:46:00.000Z,1.81
2022-09-10T04:48:00.000Z,2.21
2022-09-10T04:50:00.000Z,2.6
2022-09-10T04:52:00.000Z,3.08
2022-09-10T04:54:00.000Z,3.55
2022-09-10T04:56:00.000Z,4.1
2022-09-10T04:58:00.000Z,4.42
2022-09-10T05:00:00.000Z,4.42
2022-09-10T05:02:00.000Z,4.66
2022-09-10T05:04:00.000Z,5.05
2022-09-10T05:06:00.000Z,5.29
2022-09-10T05:08:00.000Z,6.32
2022-09-10T05:10:00.000Z,6.79
2022-09-10T05:12:00.000Z,7.26
2022-09-10T05:14:00.000Z,8.21
2022-09-10T05:16:00.000Z,8.92
2022-09-10T05:18:00.000Z,9.32
2022-09-10T05:20:00.000Z,9.63
2022-09-10T05:22:00.000Z,10.19
2022-09-10T05:24:00.000Z,10.9
2022-09-10T05:26:00.000Z,11.85
2022-09-10T05:28:00.000Z,13.35
2022-09-10T05:30:00.000Z,14.53
2022-09-10T05:32:00.000Z,15.16
2022-09-10T05:34:00.000Z,16.19
2022-09-10T05:36:00.000Z,17.45
2022-09-10T05:38:00.000Z,18.32
2022-09-10T05:40:00.000Z,18.96
2022-09-10T05:42:00.000Z,19.51
2022-09-10T05:44:00.000Z,20.14
2022-09-10T05:46:00.000Z,21.25
2022-09-10T05:48:00.000Z,22.51
2022-09-10T05:50:00.000Z,24.17
2022-09-10T05:52:00.000Z,26.3
2022-09-10T05:54:00.000Z,28.99
2022-09-10T05:56:00.000Z,30.25
2022-09-10T05:58:00.000Z,32.46
2022-09-10T06:00:00.000Z,34.12
2022-09-10T06:02:00.000Z,35.7
2022-09-10T06:04:00.000Z,37.13
2022-09-10T06:06:00.000Z,38.94
2022-09-10T06:08:00.000Z,40.36
2022-09-10T06:10:00.000Z,41.08
2022-09-10T06:12:00.000Z,41.87
2022-09-10T06:14:00.000Z,42.66
2022-09-10T06:16:00.000Z,43.92
2022-09-10T06:18:00.000Z,45.26
2022-09-10T06:20:00.000Z,46.05
2022-09-10T06:22:00.000Z,45.97
2022-09-10T06:24:00.000Z,45.26
2022-09-10T06:26:00.000Z,44.47
2022-09-10T06:28:00.000Z,42.89
2022-09-10T06:30:00.000Z,40.6
2022-09-10T06:32:00.000Z,40.13
2022-09-10T06:34:00.000Z,42.42
2022-09-10T06:36:00.000Z,45.89
2022-09-10T06:38:00.000Z,49.45
2022-09-10T06:40:00.000Z,52.53
2022-09-10T06:42:00.000Z,55.37
2022-09-10T06:44:00.000Z,59.33
2022-09-10T06:46:00.000Z,61.54
2022-09-10T06:48:00.000Z,65.96
2022-09-10T06:50:00.000Z,70.39
2022-09-10T06:52:00.000Z,74.41
2022-09-10T06:54:00.000Z,77.89
2022-09-10T06:56:00.000Z,82.24
2022-09-10T06:58:00.000Z,89.5
2022-09-10T07:00:00.000Z,100.25
2022-09-10T07:02:00.000Z,112.26
2022-09-10T07:04:00.000Z,122.84
2022-09-10T07:06:00.000Z,131.37
2022-09-10T07:08:00.000Z,137.93
2022-09-10T07:10:00.000Z,143.54
2022-09-10T07:12:00.000Z,146.15
2022-09-10T07:14:00.000Z,150.33
2022-09-10T07:16:00.000Z,152.63
2022-09-10T07:18:00.000Z,154.28
2022-09-10T07:20:00.000Z,162.97
2022-09-10T07:22:00.000Z,173.01
2022-09-10T07:24:00.000Z,183.91
2022-09-10T07:26:00.000Z,184.46
2022-09-10T07:28:00.000Z,185.57
2022-09-10T07:30:00.000Z,183.04
2022-09-10T07:32:00.000Z,178.22
2022-09-10T07:34:00.000Z,175.69
2022-09-10T07:36:00.000Z,169.45
2022-09-10T07:38:00.000Z,160.05
2022-09-10T07:40:00.000Z,160.84
2022-09-10T07:42:00.000Z,158.16
2022-09-10T07:44:00.000Z,151.84
2022-09-10T07:46:00.000Z,155.39
2022-09-10T07:48:00.000Z,149.7
2022-09-10T07:50:00.000Z,143.62
2022-09-10T07:52:00.000Z,131.3
2022-09-10T07:54:00.000Z,134.3
2022-09-10T07:56:00.000Z,159.97
2022-09-10T07:58:00.000Z,182.65
2022-09-10T08:00:00.000Z,178.93
2022-09-10T08:02:00.000Z,182.49
2022-09-10T08:04:00.000Z,189.99
2022-09-10T08:06:00.000Z,199.79
2022-09-10T08:08:00.000Z,210.53
2022-09-10T08:10:00.000Z,209.27
2022-09-10T08:12:00.000Z,224.04
2022-09-10T08:14:00.000Z,227.6
2022-09-10T08:16:00.000Z,211.4
2022-09-10T08:18:00.000Z,199.16
2022-09-10T08:20:00.000Z,207.85
2022-09-10T08:22:00.000Z,210.77
2022-09-10T08:24:00.000Z,208.87
2022-09-10T08:26:00.000Z,219.54
2022-09-10T08:28:00.000Z,226.57
2022-09-10T08:30:00.000Z,196.87
2022-09-10T08:32:00.000Z,178.14
2022-09-10T08:34:00.000Z,188.18
2022-09-10T08:36:00.000Z,199.32
2022-09-10T08:38:00.000Z,207.69
2022-09-10T08:40:00.000Z,214.72
2022-09-10T08:42:00.000Z,310.79
2022-09-10T08:44:00.000Z,431.74
2022-09-10T08:46:00.000Z,239.21
2022-09-10T08:48:00.000Z,263.86
2022-09-10T08:50:00.000Z,325.24
2022-09-10T08:52:00.000Z,345.55
2022-09-10T08:54:00.000Z,353.37
2022-09-10T08:56:00.000Z,439.72
2022-09-10T08:58:00.000Z,386.0
2022-09-10T09:00:00.000Z,418.78
2022-09-10T09:02:00.000Z,348.55
2022-09-10T09:04:00.000Z,257.54
2022-09-10T09:06:00.000Z,237.63
2022-09-10T09:08:00.000Z,189.28
2022-09-10T09:10:00.000Z,172.38
2022-09-10T09:12:00.000Z,178.62
2022-09-10T09:14:00.000Z,197.89
2022-09-10T09:16:00.000Z,210.53
2022-09-10T09:18:00.000Z,214.33
2022-09-10T09:20:00.000Z,218.28
2022-09-10T09:22:00.000Z,211.32
2022-09-10T09:24:00.000Z,212.98
2022-09-10T09:26:00.000Z,210.61
2022-09-10T09:28:00.000Z,203.27
2022-09-10T09:30:00.000Z,210.61
2022-09-10T09:32:00.000Z,216.38
2022-09-10T09:34:00.000Z,218.59
2022-09-10T09:36:00.000Z,198.68
2022-09-10T09:38:00.000Z,185.73
2022-09-10T09:40:00.000Z,223.25
2022-09-10T09:42:00.000Z,214.48
2022-09-10T09:44:00.000Z,253.27
2022-09-10T09:46:00.000Z,389.63
2022-09-10T09:48:00.000Z,646.94
2022-09-10T09:50:00.000Z,511.06
2022-09-10T09:52:00.000Z,445.25
2022-09-10T09:54:00.000Z,294.83
2022-09-10T09:56:00.000Z,325.48
2022-09-10T09:58:00.000Z,282.27
2022-09-10T10:00:00.000Z,254.85
2022-09-10T10:02:00.000Z,249.64
2022-09-10T10:04:00.000Z,251.93
2022-09-10T10:06:00.000Z,259.51
2022-09-10T10:08:00.000Z,285.98
2022-09-10T10:10:00.000Z,312.76
2022-09-10T10:12:00.000Z,291.51
2022-09-10T10:14:00.000Z,256.43
2022-09-10T10:16:00.000Z,246.56
2022-09-10T10:18:00.000Z,323.03
2022-09-10T10:20:00.000Z,422.1
2022-09-10T10:22:00.000Z,354.32
2022-09-10T10:24:00.000Z,352.34
2022-09-10T10:26:00.000Z,397.06
2022-09-10T10:28:00.000Z,426.13
2022-09-10T10:30:00.000Z,481.67
2022-09-10T10:32:00.000Z,566.12
2022-09-10T10:34:00.000Z,554.9
2022-09-10T10:36:00.000Z,344.84
2022-09-10T10:38:00.000Z,276.03
2022-09-10T10:40:00.000Z,221.04
2022-09-10T10:42:00.000Z,193.0
2022-09-10T10:44:00.000Z,151.12
2022-09-10T10:46:00.000Z,113.28
2022-09-10T10:48:00.000Z,110.12
2022-09-10T10:50:00.000Z,137.46
2022-09-10T10:52:00.000Z,154.21
2022-09-10T10:54:00.000Z,153.02
2022-09-10T10:56:00.000Z,148.75
2022-09-10T10:58:00.000Z,151.6
2022-09-10T11:00:00.000Z,157.21
2022-09-10T11:02:00.000Z,164.95
2022-09-10T11:04:00.000Z,235.66
2022-09-10T11:06:00.000Z,315.05
2022-09-10T11:08:00.000Z,319.71
2022-09-10T11:10:00.000Z,205.16
2022-09-10T11:12:00.000Z,207.45
2022-09-10T11:14:00.000Z,218.35
2022-09-10T11:16:00.000Z,244.19
2022-09-10T11:18:00.000Z,256.51
2022-09-10T11:20:00.000Z,262.2
2022-09-10T11:22:00.000Z,267.81
2022-09-10T11:24:00.000Z,285.66
2022-09-10T11:26:00.000Z,287.24
2022-09-10T11:28:00.000Z,275.39
2022-09-10T11:30:00.000Z,270.89
2022-09-10T11:32:00.000Z,407.8
2022-09-10T11:34:00.000Z,300.2
2022-09-10T11:36:00.000Z,308.65
2022-09-10T11:38:00.000Z,327.61
2022-09-10T11:40:00.000Z,331.72
2022-09-10T11:42:00.000Z,271.6
2022-09-10T11:44:00.000Z,285.03
2022-09-10T11:46:00.000Z,319.71
2022-09-10T11:48:00.000Z,307.78
2022-09-10T11:50:00.000Z,277.92
2022-09-10T11:52:00.000Z,274.76
2022-09-10T11:54:00.000Z,260.38
2022-09-10T11:56:00.000Z,230.52
2022-09-10T11:58:00.000Z,220.09
2022-09-10T12:00:00.000Z,235.97
2022-09-10T12:02:00.000Z,251.93
2022-09-10T12:04:00.000Z,265.44
2022-09-10T12:06:00.000Z,272.08
2022-09-10T12:08:00.000Z,277.76
2022-09-10T12:10:00.000Z,286.45
2022-09-10T12:12:00.000Z,290.64
2022-09-10T12:14:00.000Z,326.67
2022-09-10T12:16:00.000Z,384.34
2022-09-10T12:18:00.000Z,374.62
2022-09-10T12:20:00.000Z,330.38
2022-09-10T12:22:00.000Z,329.11
2022-09-10T12:24:00.000Z,365.85
2022-09-10T12:26:00.000Z,368.69
2022-09-10T12:28:00.000Z,335.51
2022-09-10T12:30:00.000Z,297.28
2022-09-10T12:32:00.000Z,276.26
2022-09-10T12:34:00.000Z,273.18
2022-09-10T12:36:00.000Z,310.63
2022-09-10T12:38:00.000Z,365.61
2022-09-10T12:40:00.000Z,210.45
2022-09-10T12:42:00.000Z,206.19
2022-09-10T12:44:00.000Z,228.39
2022-09-10T12:46:00.000Z,251.14
2022-09-10T12:48:00.000Z,247.9
2022-09-10T12:50:00.000Z,227.28
2022-09-10T12:52:00.000Z,201.45
2022-09-10T12:54:00.000Z,179.96
2022-09-10T12:56:00.000Z,177.27
2022-09-10T12:58:00.000Z,175.46
2022-09-10T13:00:00.000Z,204.37
2022-09-10T13:02:00.000Z,218.04
2022-09-10T13:04:00.000Z,216.85
2022-09-10T13:06:00.000Z,213.54
2022-09-10T13:08:00.000Z,204.13
2022-09-10T13:10:00.000Z,197.58
2022-09-10T13:12:00.000Z,188.73
2022-09-10T13:14:00.000Z,199.79
2022-09-10T13:16:00.000Z,195.6
2022-09-10T13:18:00.000Z,175.54
2022-09-10T13:20:00.000Z,149.7
2022-09-10T13:22:00.000Z,144.17
2022-09-10T13:24:00.000Z,156.5
2022-09-10T13:26:00.000Z,160.37
2022-09-10T13:28:00.000Z,158.16
2022-09-10T13:30:00.000Z,156.97
2022-09-10T13:32:00.000Z,161.87
2022-09-10T13:34:00.000Z,165.42
2022-09-10T13:36:00.000Z,158.16
2022-09-10T13:38:00.000Z,152.63
2022-09-10T13:40:00.000Z,153.73
2022-09-10T13:42:00.000Z,161.87
2022-09-10T13:44:00.000Z,163.84
2022-09-10T13:46:00.000Z,159.74
2022-09-10T13:48:00.000Z,161.08
2022-09-10T13:50:00.000Z,159.34
2022-09-10T13:52:00.000Z,158.0
2022-09-10T13:54:00.000Z,156.26
2022-09-10T13:56:00.000Z,154.21
2022-09-10T13:58:00.000Z,158.08
2022-09-10T14:00:00.000Z,158.71
2022-09-10T14:02:00.000Z,154.68
2022-09-10T14:04:00.000Z,148.91
2022-09-10T14:06:00.000Z,148.12
2022-09-10T14:08:00.000Z,150.73
2022-09-10T14:10:00.000Z,154.6
2022-09-10T14:12:00.000Z,159.89
2022-09-10T14:14:00.000Z,161.0
2022-09-10T14:16:00.000Z,160.45
2022-09-10T14:18:00.000Z,156.1
2022-09-10T14:20:00.000Z,154.13
2022-09-10T14:22:00.000Z,160.37
2022-09-10T14:24:00.000Z,172.53
2022-09-10T14:26:00.000Z,200.58
2022-09-10T14:28:00.000Z,324.3
2022-09-10T14:30:00.000Z,198.76
2022-09-10T14:32:00.000Z,196.39
2022-09-10T14:34:00.000Z,310.71
2022-09-10T14:36:00.000Z,296.72
2022-09-10T14:38:00.000Z,205.95
2022-09-10T14:40:00.000Z,308.1
2022-09-10T14:42:00.000Z,296.25
2022-09-10T14:44:00.000Z,187.7
2022-09-10T14:46:00.000Z,179.09
2022-09-10T14:48:00.000Z,305.34
2022-09-10T14:50:00.000Z,189.12
2022-09-10T14:52:00.000Z,178.06
2022-09-10T14:54:00.000Z,165.34
2022-09-10T14:56:00.000Z,164.79
2022-09-10T14:58:00.000Z,154.13
2022-09-10T15:00:00.000Z,252.17
2022-09-10T15:02:00.000Z,269.86
2022-09-10T15:04:00.000Z,173.25
2022-09-10T15:06:00.000Z,169.37
2022-09-10T15:08:00.000Z,162.66
2022-09-10T15:10:00.000Z,212.19
2022-09-10T15:12:00.000Z,306.05
2022-09-10T15:14:00.000Z,198.53
2022-09-10T15:16:00.000Z,177.2
2022-09-10T15:18:00.000Z,161.24
2022-09-10T15:20:00.000Z,154.92
2022-09-10T15:22:00.000Z,197.18
2022-09-10T15:24:00.000Z,227.28
2022-09-10T15:26:00.000Z,274.68
2022-09-10T15:28:00.000Z,179.33
2022-09-10T15:30:00.000Z,229.18
2022-09-10T15:32:00.000Z,280.45
2022-09-10T15:34:00.000Z,207.14
2022-09-10T15:36:00.000Z,232.58
2022-09-10T15:38:00.000Z,240.55
2022-09-10T15:40:00.000Z,226.57
2022-09-10T15:42:00.000Z,176.48
2022-09-10T15:44:00.000Z,101.83
2022-09-10T15:46:00.000Z,89.03
2022-09-10T15:48:00.000Z,80.02
2022-09-10T15:50:00.000Z,75.2
2022-09-10T15:52:00.000Z,70.39
2022-09-10T15:54:00.000Z,68.49
2022-09-10T15:56:00.000Z,66.99
2022-09-10T15:58:00.000Z,63.83
2022-09-10T16:00:00.000Z,58.93
2022-09-10T16:02:00.000Z,55.93
2022-09-10T16:04:00.000Z,54.51
2022-09-10T16:06:00.000Z,53.87
2022-09-10T16:08:00.000Z,52.21
2022-09-10T16:10:00.000Z,52.14
2022-09-10T16:12:00.000Z,53.72
2022-09-10T16:14:00.000Z,54.66
2022-09-10T16:16:00.000Z,57.51
2022-09-10T16:18:00.000Z,63.04
2022-09-10T16:20:00.000Z,74.02
2022-09-10T16:22:00.000Z,73.07
2022-09-10T16:24:00.000Z,75.92
2022-09-10T16:26:00.000Z,78.6
2022-09-10T16:28:00.000Z,76.71
2022-09-10T16:30:00.000Z,75.05
2022-09-10T16:32:00.000Z,66.2
2022-09-10T16:34:00.000Z,64.93
2022-09-10T16:36:00.000Z,63.75
2022-09-10T16:38:00.000Z,61.77
2022-09-10T16:40:00.000Z,60.51
2022-09-10T16:42:00.000Z,56.17
2022-09-10T16:44:00.000Z,52.29
2022-09-10T16:46:00.000Z,50.24
2022-09-10T16:48:00.000Z,49.77
2022-09-10T16:50:00.000Z,49.29
2022-09-10T16:52:00.000Z,46.13
2022-09-10T16:54:00.000Z,43.37
2022-09-10T16:56:00.000Z,42.66
2022-09-10T16:58:00.000Z,41.15
2022-09-10T17:00:00.000Z,39.65
2022-09-10T17:02:00.000Z,38.31
2022-09-10T17:04:00.000Z,37.05
2022-09-10T17:06:00.000Z,36.73
2022-09-10T17:08:00.000Z,35.07
2022-09-10T17:10:00.000Z,32.7
2022-09-10T17:12:00.000Z,31.83
2022-09-10T17:14:00.000Z,31.12
2022-09-10T17:16:00.000Z,28.75
2022-09-10T17:18:00.000Z,24.33
2022-09-10T17:20:00.000Z,20.85
2022-09-10T17:22:00.000Z,18.32
2022-09-10T17:24:00.000Z,16.59
2022-09-10T17:26:00.000Z,14.85
2022-09-10T17:28:00.000Z,13.27
2022-09-10T17:30:00.000Z,12.16
2022-09-10T17:32:00.000Z,11.13
2022-09-10T17:34:00.000Z,10.03
2022-09-10T17:36:00.000Z,9.32
2022-09-10T17:38:00.000Z,8.05
2022-09-10T17:40:00.000Z,6.95
2022-09-10T17:42:00.000Z,5.76
2022-09-10T17:44:00.000Z,4.97
2022-09-10T17:46:00.000Z,4.26
2022-09-10T17:48:00.000Z,3.47
2022-09-10T17:50:00.000Z,2.92
2022-09-10T17:52:00.000Z,2.44
2022-09-10T17:54:00.000Z,1.89
2022-09-10T17:56:00.000Z,1.42
2022-09-10T17:58:00.000Z,1.18
2022-09-10T18:00:00.000Z,0.79
2022-09-10T18:02:00.000Z,0.79
2022-09-10T18:04:00.000Z,0.47
2022-09-10T18:06:00.000Z,0.39
2022-09-10T18:08:00.000Z,0.0
2022-09-10T18:10:00.000Z,0.0
2022-09-10T18:12:00.000Z,0.0
2022-09-10T18:14:00.000Z,0.0
2022-09-10T18:16:00.000Z,0.0
2022-09-10T18:18:00.000Z,0.0
2022-09-10T18:20:00.000Z,0.0
2022-09-10T18:22:00.000Z,0.0
2022-09-10T18:24:00.000Z,0.0
2022-09-10T18:26:00.000Z,0.0
2022-09-10T18:28:00.000Z,0.0
2022-09-10T18:30:00.000Z,0.0
2022-09-10T18:32:00.000Z,0.0
2022-09-10T18:34:00.000Z,0.0
2022-09-10T18:36:00.000Z,0.0
2022-09-10T18:38:00.000Z,0.0
2022-09-10T18:40:00.000Z,0.0
2022-09-10T18:42:00.000Z,0.0
2022-09-10T18:44:00.000Z,0.0
2022-09-10T18:46:00.000Z,0.0
2022-09-10T18:48:00.000Z,0.0
2022-09-10T18:50:00.000Z,0.0
2022-09-10T18:52:00.000Z,0.0
2022-09-10T18:54:00.000Z,0.0
2022-09-10T18:56:00.000Z,0.0
2022-09-10T18:58:00.000Z,0.0
2022-09-10T19:00:00.000Z,0.0
2022-09-10T19:02:00.000Z,0.0
2022-09-10T19:04:00.000Z,0.0
2022-09-10T19:06:00.000Z,0.0
2022-09-10T19:08:00.000Z,0.0
2022-09-10T19:10:00.000Z,0.0
2022-09-10T19:12:00.000Z,0.0
2022-09-10T19:14:00.000Z,0.0
2022-09-10T19:16:00.000Z,0.0
2022-09-10T19:18:00.000Z,0.0
2022-09-10T19:20:00.000Z,0.0
2022-09-10T19:22:00.000Z,0.0
2022-09-10T19:24:00.000Z,0.0
2022-09-10T19:26:00.000Z,0.0
2022-09-10T19:28:00.000Z,0.0
2022-09-10T19:30:00.000Z,0.0
2022-09-10T19:32:00.000Z,0.0
2022-09-10T19:34:00.000Z,0.0
2022-09-10T19:36:00.000Z,0.0
2022-09-10T19:38:00.000Z,0.0
2022-09-10T19:40:00.000Z,0.0
2022-09-10T19:42:00.000Z,0.0
2022-09-10T19:44:00.000Z,0.0
2022-09-10T19:46:00.000Z,0.0
2022-09-10T19:48:00.000Z,0.0
2022-09-10T19:50:00.000Z,0.0
2022-09-10T19:52:00.000Z,0.0
2022-09-10T19:54:00.000Z,0.0
2022-09-10T19:56:00.000Z,0.0
2022-09-10T19:58:00.000Z,0.0
2022-09-10T20:00:00.000Z,0.0
2022-09-10T20:02:00.000Z,0.0
2022-09-10T20:04:00.000Z,0.0
2022-09-10T20:06:00.000Z,0.0
2022-09-10T20:08:00.000Z,0.0
2022-09-10T20:10:00.000Z,0.0
2022-09-10T20:12:00.000Z,0.0
2022-09-10T20:14:00.000Z,0.0
2022-09-10T20:16:00.000Z,0.0
2022-09-10T20:18:00.000Z,0.0
2022-09-10T20:20:00.000Z,0.0
2022-09-10T20:22:00.000Z,0.0
2022-09-10T20:24:00.000Z,0.0
2022-09-10T20:26:00.000Z,0.0
2022-09-10T20:28:00.000Z,0.0
2022-09-10T20:30:00.000Z,0.0
2022-09-10T20:32:00.000Z,0.0
2022-09-10T20:34:00.000Z,0.0
2022-09-10T20:36:00.000Z,0.0
2022-09-10T20:38:00.000Z,0.0
2022-09-10T20:40:00.000Z,0.0
2022-09-10T20:42:00.000Z,0.0
2022-09-10T20:44:00.000Z,0.0
2022-09-10T20:46:00.000Z,0.0
2022-09-10T20:48:00.000Z,0.0
2022-09-10T20:50:00.000Z,0.0
2022-09-10T20:52:00.000Z,0.0
2022-09-10T20:54:00.000Z,0.0
2022-09-10T20:56:00.000Z,0.0
2022-09-10T20:58:00.000Z,0.0
2022-09-10T21:00:00.000Z,0.0
2022-09-10T21:02:00.000Z,0.0
2022-09-10T21:04:00.000Z,0.0
2022-09-10T21:06:00.000Z,0.0
2022-09-10T21:08:00.000Z,0.0
2022-09-10T21:10:00.000Z,0.0
2022-09-10T21:12:00.000Z,0.0
2022-09-10T21:14:00.000Z,0.0
2022-09-10T21:16:00.000Z,0.0
2022-09-10T21:18:00.000Z,0.0
2022-09-10T21:20:00.000Z,0.0
2022-09-10T21:22:00.000Z,0.0
2022-09-10T21:24:00.000Z,0.0
2022-09-10T21:26:00.000Z,0.0
2022-09-10T21:28:00.000Z,0.0
2022-09-10T21:30:00.000Z,0.0
2022-09-10T21:32:00.000Z,0.0
2022-09-10T21:34:00.000Z,0.0
2022-09-10T21:36:00.000Z,0.0
2022-09-10T21:38:00.000Z,0.0
2022-09-10T21:40:00.000Z,0.0
2022-09-10T21:42:00.000Z,0.0
2022-09-10T21:44:00.000Z,0.0
2022-09-10T21:46:00.000Z,0.0
2022-09-10T21:48:00.000Z,0.0
2022-09-10T21:50:00.000Z,0.0
2022-09-10T21:52:00.000Z,0.0
2022-09-10T21:54:00.000Z,0.0
2022-09-10T21:56:00.000Z,0.0
2022-09-10T21:58:00.000Z,0.0
2022-09-10T22:00:00.000Z,0.0
2022-09-10T22:02:00.000Z,0.0
2022-09-10T22:04:00.000Z,0.0
2022-09-10T22:06:00.000Z,0.0
2022-09-10T22:08:00.000Z,0.0
2022-09-10T22:10:00.000Z,0.0
2022-09-10T22:12:00.000Z,0.0
2022-09-10T22:14:00.000Z,0.0
2022-09-10T22:16:00.000Z,0.0
2022-09-10T22:18:00.000Z,0.0
2022-09-10T22:20:00.000Z,0.0
2022-09-10T22:22:00.000Z,0.0
2022-09-10T22:24:00.000Z,0.0
2022-09-10T22:26:00.000Z,0.0
2022-09-10T22:28:00.000Z,0.0
2022-09-10T22:30:00.000Z,0.0
2022-09-10T22:32:00.000Z,0.0
2022-09-10T22:34:00.000Z,0.0
2022-09-10T22:36:00.000Z,0.0
2022-09-10T22:38:00.000Z,0.0
2022-09-10T22:40:00.000Z,0.0
2022-09-10T22:42:00.000Z,0.0
2022-09-10T22:44:00.000Z,0.0
2022-09-10T22:46:00.000Z,0.0
2022-09-10T22:48:00.000Z,0.0
2022-09-10T22:50:00.000Z,0.0
2022-09-10T22:52:00.000Z,0.0
2022-09-10T22:54:00.000Z,0.0
2022-09-10T22:56:00.000Z,0.0
2022-09-10T22:58:00.000Z,0.0
2022-09-10T23:00:00.000Z,0.0
2022-09-10T23:02:00.000Z,0.0
2022-09-10T23:04:00.000Z,0.0
2022-09-10T23:06:00.000Z,0.0
2022-09-10T23:08:00.000Z,0.0
2022-09-10T23:10:00.000Z,0.0
2022-09-10T23:12:00.000Z,0.0
2022-09-10T23:14:00.000Z,0.0
2022-09-10T23:16:00.000Z,0.0
2022-09-10T23:18:00.000Z,0.0
2022-09-10T23:20:00.000Z,0.0
2022-09-10T23:22:00.000Z,0.0
2022-09-10T23:24:00.000Z,0.0
2022-09-10T23:26:00.000Z,0.0
2022-09-10T23:28:00.000Z,0.0
2022-09-10T23:30:00.000Z,0.0
2022-09-10T23:32:00.000Z,0.0
2022-09-10T23:34:00.000Z,0.0
2022-09-10T23:36:00.000Z,0.0
2022-09-10T23:38:00.000Z,0.0
2022-09-10T23:40:00.000Z,0.0
2022-09-10T23:42:00.000Z,0.0
2022-09-10T23:44:00.000Z,0.0
2022-09-10T23:46:00.000Z,0.0
2022-09-10T23:48:00.000Z,0.0
2022-09-10T23:50:00.000Z,0.0
2022-09-10T23:52:00.000Z,0.0
2022-09-10T23:54:00.000Z,0.0
2022-09-10T23:56:00.000Z,0.0
2022-09-10T23:58:00.000Z,0.0
